sensor_id;sensor_type;location;lat;lon;timestamp;pressure;altitude;pressure_sealevel;temperature;humidity
16738;BME280;17906;47.684;10.806;2023-02-02T00:01:56;93799.22;;;-0.41;75.72
16738;BME280;17906;47.684;10.806;2023-02-02T00:04:24;93788.56;;;-0.41;74.84
16738;BME280;17906;47.684;10.806;2023-02-02T00:06:51;93801.38;;;-0.45;76.88
16738;BME280;17906;47.684;10.806;2023-02-02T00:09:19;93799.03;;;-0.48;77.93
16738;BME280;17906;47.684;10.806;2023-02-02T00:11:48;93804.06;;;-0.45;77.99
16738;BME280;17906;47.684;10.806;2023-02-02T00:14:16;93789.22;;;-0.47;76.92
16738;BME280;17906;47.684;10.806;2023-02-02T00:16:44;93789.25;;;-0.56;78.96
16738;BME280;17906;47.684;10.806;2023-02-02T00:19:12;93772.09;;;-0.61;79.42
16738;BME280;17906;47.684;10.806;2023-02-02T00:21:40;93770.75;;;-0.57;79.32
16738;BME280;17906;47.684;10.806;2023-02-02T00:24:07;93756.13;;;-0.53;78.02
16738;BME280;17906;47.684;10.806;2023-02-02T00:26:35;93754.13;;;-0.51;78.97
16738;BME280;17906;47.684;10.806;2023-02-02T00:29:04;93746.13;;;-0.51;79.31
16738;BME280;17906;47.684;10.806;2023-02-02T00:31:31;93776.25;;;-0.50;79.29
16738;BME280;17906;47.684;10.806;2023-02-02T00:33:57;93784.75;;;-0.55;79.87
16738;BME280;17906;47.684;10.806;2023-02-02T00:36:25;93784.06;;;-0.49;78.11
16738;BME280;17906;47.684;10.806;2023-02-02T00:38:51;93766.78;;;-0.53;79.39
16738;BME280;17906;47.684;10.806;2023-02-02T00:41:18;93775.41;;;-0.51;79.39
16738;BME280;17906;47.684;10.806;2023-02-02T00:43:45;93776.06;;;-0.49;78.43
16738;BME280;17906;47.684;10.806;2023-02-02T00:46:33;93783.91;;;-0.47;79.19
16738;BME280;17906;47.684;10.806;2023-02-02T00:48:59;93774.25;;;-0.48;79.86
16738;BME280;17906;47.684;10.806;2023-02-02T00:51:25;93782.75;;;-0.45;79.04
16738;BME280;17906;47.684;10.806;2023-02-02T00:53:52;93790.56;;;-0.43;79.66
16738;BME280;17906;47.684;10.806;2023-02-02T00:56:19;93790.88;;;-0.46;80.34
16738;BME280;17906;47.684;10.806;2023-02-02T00:58:45;93792.88;;;-0.48;81.32
16738;BME280;17906;47.684;10.806;2023-02-02T01:01:14;93772.59;;;-0.49;80.99
16738;BME280;17906;47.684;10.806;2023-02-02T01:03:43;93774.25;;;-0.48;81.54
16738;BME280;17906;47.684;10.806;2023-02-02T01:06:09;93769.44;;;-0.53;81.26
16738;BME280;17906;47.684;10.806;2023-02-02T01:08:36;93771.41;;;-0.47;80.52
16738;BME280;17906;47.684;10.806;2023-02-02T01:11:03;93759.09;;;-0.48;81.49
16738;BME280;17906;47.684;10.806;2023-02-02T01:13:30;93752.63;;;-0.45;80.72
16738;BME280;17906;47.684;10.806;2023-02-02T01:15:57;93763.94;;;-0.43;81.46
16738;BME280;17906;47.684;10.806;2023-02-02T01:18:24;93760.63;;;-0.45;81.02
16738;BME280;17906;47.684;10.806;2023-02-02T01:20:57;93766.59;;;-0.51;82.24
16738;BME280;17906;47.684;10.806;2023-02-02T01:23:23;93748.13;;;-0.53;81.43
16738;BME280;17906;47.684;10.806;2023-02-02T01:25:52;93757.13;;;-0.54;81.33
16738;BME280;17906;47.684;10.806;2023-02-02T01:28:19;93767.78;;;-0.54;81.88
16738;BME280;17906;47.684;10.806;2023-02-02T01:30:45;93752.28;;;-0.59;82.30
16738;BME280;17906;47.684;10.806;2023-02-02T01:33:12;93780.75;;;-0.51;79.93
16738;BME280;17906;47.684;10.806;2023-02-02T01:35:44;93789.38;;;-0.49;80.32
16738;BME280;17906;47.684;10.806;2023-02-02T01:38:12;93768.59;;;-0.53;81.80
16738;BME280;17906;47.684;10.806;2023-02-02T01:40:43;93775.25;;;-0.49;80.67
16738;BME280;17906;47.684;10.806;2023-02-02T01:43:19;93772.94;;;-0.52;81.97
16738;BME280;17906;47.684;10.806;2023-02-02T01:45:47;93781.25;;;-0.56;81.42
16738;BME280;17906;47.684;10.806;2023-02-02T01:48:14;93781.56;;;-0.50;81.72
16738;BME280;17906;47.684;10.806;2023-02-02T01:50:42;93778.59;;;-0.56;81.84
16738;BME280;17906;47.684;10.806;2023-02-02T01:53:09;93778.78;;;-0.65;84.34
16738;BME280;17906;47.684;10.806;2023-02-02T01:55:38;93789.06;;;-0.78;86.57
16738;BME280;17906;47.684;10.806;2023-02-02T01:58:10;93795.56;;;-0.81;86.04
16738;BME280;17906;47.684;10.806;2023-02-02T02:00:40;93776.78;;;-0.88;87.52
16738;BME280;17906;47.684;10.806;2023-02-02T02:03:11;93793.56;;;-0.87;88.44
16738;BME280;17906;47.684;10.806;2023-02-02T02:05:41;93778.91;;;-0.91;87.88
16738;BME280;17906;47.684;10.806;2023-02-02T02:08:16;93796.06;;;-0.94;88.72
16738;BME280;17906;47.684;10.806;2023-02-02T02:10:45;93779.59;;;-0.97;89.69
16738;BME280;17906;47.684;10.806;2023-02-02T02:13:12;93791.53;;;-1.01;89.70
16738;BME280;17906;47.684;10.806;2023-02-02T02:15:44;93787.22;;;-1.02;89.89
16738;BME280;17906;47.684;10.806;2023-02-02T02:18:39;93777.41;;;-1.02;89.98
16738;BME280;17906;47.684;10.806;2023-02-02T02:21:39;93793.72;;;-0.97;88.48
16738;BME280;17906;47.684;10.806;2023-02-02T02:24:54;93790.72;;;-0.94;88.75
16738;BME280;17906;47.684;10.806;2023-02-02T02:28:10;93800.22;;;-0.99;90.40
16738;BME280;17906;47.684;10.806;2023-02-02T02:33:45;93796.00;;;-1.26;94.40
16738;BME280;17906;47.684;10.806;2023-02-02T02:36:16;93781.69;;;-1.33;96.17
16738;BME280;17906;47.684;10.806;2023-02-02T02:38:49;93777.03;;;-1.39;97.29
16738;BME280;17906;47.684;10.806;2023-02-02T02:41:20;93759.44;;;-1.40;96.89
16738;BME280;17906;47.684;10.806;2023-02-02T02:43:51;93768.56;;;-1.35;96.86
16738;BME280;17906;47.684;10.806;2023-02-02T02:46:18;93765.91;;;-1.35;97.55
16738;BME280;17906;47.684;10.806;2023-02-02T02:48:46;93767.22;;;-1.39;96.57
16738;BME280;17906;47.684;10.806;2023-02-02T02:51:38;93772.22;;;-1.36;96.48
16738;BME280;17906;47.684;10.806;2023-02-02T02:54:05;93773.22;;;-1.37;96.68
16738;BME280;17906;47.684;10.806;2023-02-02T02:56:36;93773.22;;;-1.37;97.62
16738;BME280;17906;47.684;10.806;2023-02-02T02:59:15;93771.06;;;-1.41;97.87
16738;BME280;17906;47.684;10.806;2023-02-02T03:01:51;93757.94;;;-1.43;96.54
16738;BME280;17906;47.684;10.806;2023-02-02T03:04:27;93764.41;;;-1.37;96.83
16738;BME280;17906;47.684;10.806;2023-02-02T03:07:01;93776.38;;;-1.25;94.91
16738;BME280;17906;47.684;10.806;2023-02-02T03:09:32;93775.72;;;-1.27;93.85
16738;BME280;17906;47.684;10.806;2023-02-02T03:12:02;93776.72;;;-1.28;95.67
16738;BME280;17906;47.684;10.806;2023-02-02T03:14:33;93770.41;;;-1.27;94.77
16738;BME280;17906;47.684;10.806;2023-02-02T03:17:00;93777.75;;;-1.21;95.07
16738;BME280;17906;47.684;10.806;2023-02-02T03:19:28;93776.75;;;-1.20;94.71
16738;BME280;17906;47.684;10.806;2023-02-02T03:21:54;93772.59;;;-1.15;93.29
16738;BME280;17906;47.684;10.806;2023-02-02T03:24:21;93779.91;;;-1.17;92.60
16738;BME280;17906;47.684;10.806;2023-02-02T03:26:47;93777.25;;;-1.08;92.03
16738;BME280;17906;47.684;10.806;2023-02-02T03:29:15;93778.09;;;-1.08;92.89
16738;BME280;17906;47.684;10.806;2023-02-02T03:31:42;93788.22;;;-1.11;93.52
16738;BME280;17906;47.684;10.806;2023-02-02T03:34:09;93782.72;;;-1.18;93.52
16738;BME280;17906;47.684;10.806;2023-02-02T03:36:37;93769.91;;;-1.15;93.84
16738;BME280;17906;47.684;10.806;2023-02-02T03:39:03;93785.22;;;-1.17;94.38
16738;BME280;17906;47.684;10.806;2023-02-02T03:41:30;93796.66;;;-1.24;95.67
16738;BME280;17906;47.684;10.806;2023-02-02T03:43:56;93791.19;;;-1.23;95.02
16738;BME280;17906;47.684;10.806;2023-02-02T03:46:23;93790.84;;;-1.28;96.07
16738;BME280;17906;47.684;10.806;2023-02-02T03:48:49;93779.72;;;-1.31;96.07
16738;BME280;17906;47.684;10.806;2023-02-02T03:51:16;93786.53;;;-1.29;95.34
16738;BME280;17906;47.684;10.806;2023-02-02T03:53:44;93793.72;;;-1.21;94.02
16738;BME280;17906;47.684;10.806;2023-02-02T03:56:12;93774.25;;;-1.14;93.94
16738;BME280;17906;47.684;10.806;2023-02-02T03:58:38;93755.78;;;-1.15;92.99
16738;BME280;17906;47.684;10.806;2023-02-02T04:01:07;93759.94;;;-1.13;92.67
16738;BME280;17906;47.684;10.806;2023-02-02T04:03:35;93771.91;;;-1.17;93.71
16738;BME280;17906;47.684;10.806;2023-02-02T04:06:01;93777.44;;;-1.10;93.33
16738;BME280;17906;47.684;10.806;2023-02-02T04:08:28;93762.44;;;-1.03;92.95
16738;BME280;17906;47.684;10.806;2023-02-02T04:10:56;93783.06;;;-1.05;94.00
16738;BME280;17906;47.684;10.806;2023-02-02T04:13:24;93779.72;;;-1.15;94.47
16738;BME280;17906;47.684;10.806;2023-02-02T04:15:57;93776.72;;;-1.12;95.30
16738;BME280;17906;47.684;10.806;2023-02-02T04:18:24;93778.06;;;-1.16;95.85
16738;BME280;17906;47.684;10.806;2023-02-02T04:20:55;93779.41;;;-1.12;95.20
16738;BME280;17906;47.684;10.806;2023-02-02T04:23:21;93778.09;;;-1.08;94.37
16738;BME280;17906;47.684;10.806;2023-02-02T04:25:48;93766.09;;;-1.12;95.96
16738;BME280;17906;47.684;10.806;2023-02-02T04:28:17;93771.09;;;-1.17;96.68
16738;BME280;17906;47.684;10.806;2023-02-02T04:30:43;93777.72;;;-1.13;95.97
16738;BME280;17906;47.684;10.806;2023-02-02T04:33:10;93799.19;;;-1.06;96.45
16738;BME280;17906;47.684;10.806;2023-02-02T04:35:36;93791.88;;;-1.13;96.57
16738;BME280;17906;47.684;10.806;2023-02-02T04:38:03;93784.22;;;-1.16;96.72
16738;BME280;17906;47.684;10.806;2023-02-02T04:40:29;93775.56;;;-1.18;96.74
16738;BME280;17906;47.684;10.806;2023-02-02T04:42:56;93786.06;;;-1.08;95.86
16738;BME280;17906;47.684;10.806;2023-02-02T04:45:24;93794.88;;;-1.07;96.66
16738;BME280;17906;47.684;10.806;2023-02-02T04:47:50;93796.06;;;-1.10;96.06
16738;BME280;17906;47.684;10.806;2023-02-02T04:50:17;93793.53;;;-1.03;95.90
16738;BME280;17906;47.684;10.806;2023-02-02T04:52:44;93786.72;;;-1.06;95.91
16738;BME280;17906;47.684;10.806;2023-02-02T04:55:10;93780.56;;;-1.06;95.98
16738;BME280;17906;47.684;10.806;2023-02-02T04:57:37;93781.41;;;-1.06;95.67
16738;BME280;17906;47.684;10.806;2023-02-02T05:00:04;93786.91;;;-1.07;95.78
16738;BME280;17906;47.684;10.806;2023-02-02T05:02:35;93797.22;;;-1.04;95.39
16738;BME280;17906;47.684;10.806;2023-02-02T05:05:03;93796.22;;;-1.03;95.81
16738;BME280;17906;47.684;10.806;2023-02-02T05:07:29;93778.94;;;-0.99;93.83
16738;BME280;17906;47.684;10.806;2023-02-02T05:09:56;93780.25;;;-0.95;93.59
16738;BME280;17906;47.684;10.806;2023-02-02T05:12:23;93788.25;;;-0.95;93.36
16738;BME280;17906;47.684;10.806;2023-02-02T05:14:49;93794.22;;;-0.93;93.19
16738;BME280;17906;47.684;10.806;2023-02-02T05:17:16;93790.38;;;-0.91;92.09
16738;BME280;17906;47.684;10.806;2023-02-02T05:19:44;93786.91;;;-0.91;93.12
16738;BME280;17906;47.684;10.806;2023-02-02T05:22:10;93780.28;;;-0.87;92.14
16738;BME280;17906;47.684;10.806;2023-02-02T05:24:37;93782.25;;;-0.81;91.64
16738;BME280;17906;47.684;10.806;2023-02-02T05:27:03;93788.91;;;-0.85;92.90
16738;BME280;17906;47.684;10.806;2023-02-02T05:29:30;93797.22;;;-0.88;93.10
16738;BME280;17906;47.684;10.806;2023-02-02T05:31:56;93781.09;;;-0.87;92.93
16738;BME280;17906;47.684;10.806;2023-02-02T05:34:23;93782.41;;;-0.91;93.50
16738;BME280;17906;47.684;10.806;2023-02-02T05:36:51;93798.72;;;-0.94;93.54
16738;BME280;17906;47.684;10.806;2023-02-02T05:39:18;93792.06;;;-0.90;92.21
16738;BME280;17906;47.684;10.806;2023-02-02T05:41:45;93767.13;;;-0.89;92.31
16738;BME280;17906;47.684;10.806;2023-02-02T05:44:12;93781.09;;;-0.87;92.25
16738;BME280;17906;47.684;10.806;2023-02-02T05:46:39;93773.59;;;-0.83;91.24
16738;BME280;17906;47.684;10.806;2023-02-02T05:49:07;93778.28;;;-0.85;92.32
16738;BME280;17906;47.684;10.806;2023-02-02T05:51:39;93781.09;;;-0.87;91.65
16738;BME280;17906;47.684;10.806;2023-02-02T05:54:09;93784.75;;;-0.79;90.87
16738;BME280;17906;47.684;10.806;2023-02-02T05:56:36;93783.91;;;-0.80;90.90
16738;BME280;17906;47.684;10.806;2023-02-02T05:59:03;93800.22;;;-0.83;91.61
16738;BME280;17906;47.684;10.806;2023-02-02T06:01:31;93796.06;;;-0.77;90.76
16738;BME280;17906;47.684;10.806;2023-02-02T06:03:58;93803.53;;;-0.81;91.46
16738;BME280;17906;47.684;10.806;2023-02-02T06:06:25;93803.38;;;-0.79;90.73
16738;BME280;17906;47.684;10.806;2023-02-02T06:08:52;93816.19;;;-0.75;90.02
16738;BME280;17906;47.684;10.806;2023-02-02T06:11:19;93817.38;;;-0.77;90.90
16738;BME280;17906;47.684;10.806;2023-02-02T06:13:46;93809.69;;;-0.80;90.59
16738;BME280;17906;47.684;10.806;2023-02-02T06:16:13;93832.97;;;-0.82;92.47
16738;BME280;17906;47.684;10.806;2023-02-02T06:18:39;93834.16;;;-0.85;92.04
16738;BME280;17906;47.684;10.806;2023-02-02T06:21:06;93840.47;;;-0.86;92.55
16738;BME280;17906;47.684;10.806;2023-02-02T06:23:33;93840.66;;;-0.88;93.49
16738;BME280;17906;47.684;10.806;2023-02-02T06:26:00;93857.75;;;-0.90;93.33
16738;BME280;17906;47.684;10.806;2023-02-02T06:28:29;93855.91;;;-0.90;93.21
16738;BME280;17906;47.684;10.806;2023-02-02T06:30:56;93839.13;;;-0.90;93.35
16738;BME280;17906;47.684;10.806;2023-02-02T06:33:28;93846.28;;;-0.91;93.43
16738;BME280;17906;47.684;10.806;2023-02-02T06:35:57;93847.94;;;-0.90;92.54
16738;BME280;17906;47.684;10.806;2023-02-02T06:38:24;93846.47;;;-0.84;92.13
16738;BME280;17906;47.684;10.806;2023-02-02T06:40:51;93851.63;;;-0.82;92.42
16738;BME280;17906;47.684;10.806;2023-02-02T06:43:17;93863.25;;;-0.83;92.64
16738;BME280;17906;47.684;10.806;2023-02-02T06:45:45;93860.94;;;-0.87;92.85
16738;BME280;17906;47.684;10.806;2023-02-02T06:48:12;93863.59;;;-0.87;93.26
16738;BME280;17906;47.684;10.806;2023-02-02T06:50:39;93871.75;;;-0.88;94.10
16738;BME280;17906;47.684;10.806;2023-02-02T06:53:05;93869.22;;;-0.90;93.75
16738;BME280;17906;47.684;10.806;2023-02-02T06:55:32;93868.25;;;-0.89;94.92
16738;BME280;17906;47.684;10.806;2023-02-02T06:57:59;93855.25;;;-0.92;95.53
16738;BME280;17906;47.684;10.806;2023-02-02T07:00:28;93870.72;;;-0.95;95.99
16738;BME280;17906;47.684;10.806;2023-02-02T07:02:56;93871.06;;;-0.98;96.98
16738;BME280;17906;47.684;10.806;2023-02-02T07:05:23;93868.56;;;-1.00;97.73
16738;BME280;17906;47.684;10.806;2023-02-02T07:07:50;93879.84;;;-1.06;97.76
16738;BME280;17906;47.684;10.806;2023-02-02T07:10:17;93875.03;;;-1.10;99.19
16738;BME280;17906;47.684;10.806;2023-02-02T07:12:44;93881.69;;;-1.06;97.75
16738;BME280;17906;47.684;10.806;2023-02-02T07:15:10;93885.34;;;-1.07;97.98
16738;BME280;17906;47.684;10.806;2023-02-02T07:17:37;93884.34;;;-1.06;98.19
16738;BME280;17906;47.684;10.806;2023-02-02T07:20:06;93877.34;;;-1.07;98.73
16738;BME280;17906;47.684;10.806;2023-02-02T07:22:33;93879.50;;;-1.03;98.86
16738;BME280;17906;47.684;10.806;2023-02-02T07:24:59;93880.00;;;-1.07;98.60
16738;BME280;17906;47.684;10.806;2023-02-02T07:27:26;93864.22;;;-1.09;99.30
16738;BME280;17906;47.684;10.806;2023-02-02T07:29:52;93883.50;;;-1.07;98.72
16738;BME280;17906;47.684;10.806;2023-02-02T07:32:19;93885.16;;;-1.06;98.78
16738;BME280;17906;47.684;10.806;2023-02-02T07:34:45;93887.50;;;-1.03;98.73
16738;BME280;17906;47.684;10.806;2023-02-02T07:37:13;93889.81;;;-1.08;98.69
16738;BME280;17906;47.684;10.806;2023-02-02T07:39:40;93881.34;;;-1.03;98.69
16738;BME280;17906;47.684;10.806;2023-02-02T07:42:09;93882.19;;;-0.95;98.61
16738;BME280;17906;47.684;10.806;2023-02-02T07:44:36;93882.69;;;-0.99;98.32
16738;BME280;17906;47.684;10.806;2023-02-02T07:47:02;93883.34;;;-1.05;98.81
16738;BME280;17906;47.684;10.806;2023-02-02T07:49:29;93880.53;;;-0.96;97.97
16738;BME280;17906;47.684;10.806;2023-02-02T07:51:56;93893.66;;;-0.94;97.11
16738;BME280;17906;47.684;10.806;2023-02-02T07:54:24;93901.66;;;-0.94;98.43
16738;BME280;17906;47.684;10.806;2023-02-02T07:56:50;93892.50;;;-0.92;97.56
16738;BME280;17906;47.684;10.806;2023-02-02T07:59:17;93890.69;;;-0.91;98.70
16738;BME280;17906;47.684;10.806;2023-02-02T08:01:43;93902.16;;;-0.91;97.78
16738;BME280;17906;47.684;10.806;2023-02-02T08:04:10;93890.38;;;-0.88;98.03
16738;BME280;17906;47.684;10.806;2023-02-02T08:06:38;93872.41;;;-0.86;96.95
16738;BME280;17906;47.684;10.806;2023-02-02T08:09:06;93895.16;;;-0.92;97.34
16738;BME280;17906;47.684;10.806;2023-02-02T08:11:35;93907.97;;;-0.95;97.41
16738;BME280;17906;47.684;10.806;2023-02-02T08:14:03;93888.53;;;-0.88;97.57
16738;BME280;17906;47.684;10.806;2023-02-02T08:16:31;93891.84;;;-0.94;97.52
16738;BME280;17906;47.684;10.806;2023-02-02T08:18:58;93906.66;;;-0.99;99.39
16738;BME280;17906;47.684;10.806;2023-02-02T08:21:24;93903.66;;;-0.96;99.17
16738;BME280;17906;47.684;10.806;2023-02-02T08:23:51;93909.44;;;-1.01;100.00
16738;BME280;17906;47.684;10.806;2023-02-02T08:26:19;93905.78;;;-1.08;100.00
16738;BME280;17906;47.684;10.806;2023-02-02T08:28:51;93920.84;;;-1.25;100.00
16738;BME280;17906;47.684;10.806;2023-02-02T08:31:20;93922.19;;;-1.21;100.00
16738;BME280;17906;47.684;10.806;2023-02-02T08:33:47;93913.84;;;-1.26;100.00
16738;BME280;17906;47.684;10.806;2023-02-02T08:36:15;93919.84;;;-1.32;100.00
16738;BME280;17906;47.684;10.806;2023-02-02T08:38:42;93934.09;;;-1.33;100.00
16738;BME280;17906;47.684;10.806;2023-02-02T08:41:10;93916.19;;;-1.31;100.00
16738;BME280;17906;47.684;10.806;2023-02-02T08:43:38;93923.78;;;-1.36;100.00
16738;BME280;17906;47.684;10.806;2023-02-02T08:46:08;93933.25;;;-1.33;100.00
16738;BME280;17906;47.684;10.806;2023-02-02T08:48:35;93936.75;;;-1.33;100.00
16738;BME280;17906;47.684;10.806;2023-02-02T08:51:03;93923.16;;;-1.30;100.00
16738;BME280;17906;47.684;10.806;2023-02-02T08:53:30;93932.84;;;-1.21;100.00
16738;BME280;17906;47.684;10.806;2023-02-02T08:55:57;93941.13;;;-1.24;100.00
16738;BME280;17906;47.684;10.806;2023-02-02T08:58:26;93931.63;;;-1.26;100.00
16738;BME280;17906;47.684;10.806;2023-02-02T09:00:53;93938.63;;;-1.25;100.00
16738;BME280;17906;47.684;10.806;2023-02-02T09:03:20;93934.97;;;-1.24;100.00
16738;BME280;17906;47.684;10.806;2023-02-02T09:05:47;93933.31;;;-1.25;100.00
16738;BME280;17906;47.684;10.806;2023-02-02T09:08:14;93942.94;;;-1.24;100.00
16738;BME280;17906;47.684;10.806;2023-02-02T09:10:40;93938.34;;;-1.14;100.00
16738;BME280;17906;47.684;10.806;2023-02-02T09:13:07;93944.97;;;-1.18;100.00
16738;BME280;17906;47.684;10.806;2023-02-02T09:15:33;93943.47;;;-1.21;100.00
16738;BME280;17906;47.684;10.806;2023-02-02T09:18:00;93947.59;;;-1.26;100.00
16738;BME280;17906;47.684;10.806;2023-02-02T09:20:28;93956.41;;;-1.26;100.00
16738;BME280;17906;47.684;10.806;2023-02-02T09:22:54;93950.09;;;-1.25;100.00
16738;BME280;17906;47.684;10.806;2023-02-02T09:25:21;93948.81;;;-1.21;100.00
16738;BME280;17906;47.684;10.806;2023-02-02T09:27:49;93950.97;;;-1.16;100.00
16738;BME280;17906;47.684;10.806;2023-02-02T09:30:16;93941.66;;;-1.12;100.00
16738;BME280;17906;47.684;10.806;2023-02-02T09:32:43;93938.53;;;-1.07;100.00
16738;BME280;17906;47.684;10.806;2023-02-02T09:35:10;93939.53;;;-1.08;100.00
16738;BME280;17906;47.684;10.806;2023-02-02T09:37:38;93941.03;;;-1.06;100.00
16738;BME280;17906;47.684;10.806;2023-02-02T09:40:05;93934.72;;;-1.05;100.00
16738;BME280;17906;47.684;10.806;2023-02-02T09:42:40;93947.53;;;-1.00;100.00
16738;BME280;17906;47.684;10.806;2023-02-02T09:45:18;93957.34;;;-1.01;100.00
16738;BME280;17906;47.684;10.806;2023-02-02T09:47:52;93951.88;;;-0.91;100.00
16738;BME280;17906;47.684;10.806;2023-02-02T09:50:27;93959.56;;;-0.88;100.00
16738;BME280;17906;47.684;10.806;2023-02-02T09:53:01;93966.56;;;-0.87;100.00
16738;BME280;17906;47.684;10.806;2023-02-02T09:55:34;93961.06;;;-0.86;100.00
16738;BME280;17906;47.684;10.806;2023-02-02T09:58:06;93959.91;;;-0.83;100.00
16738;BME280;17906;47.684;10.806;2023-02-02T10:00:38;93962.22;;;-0.80;100.00
16738;BME280;17906;47.684;10.806;2023-02-02T10:03:14;93968.09;;;-0.76;100.00
16738;BME280;17906;47.684;10.806;2023-02-02T10:05:47;93965.72;;;-0.79;100.00
16738;BME280;17906;47.684;10.806;2023-02-02T10:08:22;93969.38;;;-0.80;100.00
16738;BME280;17906;47.684;10.806;2023-02-02T10:10:51;93973.25;;;-0.75;100.00
16738;BME280;17906;47.684;10.806;2023-02-02T10:13:21;93963.09;;;-0.71;100.00
16738;BME280;17906;47.684;10.806;2023-02-02T10:15:55;93965.28;;;-0.67;100.00
16738;BME280;17906;47.684;10.806;2023-02-02T10:18:34;93977.06;;;-0.69;100.00
16738;BME280;17906;47.684;10.806;2023-02-02T10:21:06;93984.22;;;-0.70;100.00
16738;BME280;17906;47.684;10.806;2023-02-02T10:23:38;93990.59;;;-0.63;100.00
16738;BME280;17906;47.684;10.806;2023-02-02T10:26:14;93980.09;;;-0.64;100.00
16738;BME280;17906;47.684;10.806;2023-02-02T10:28:47;94003.22;;;-0.65;100.00
16738;BME280;17906;47.684;10.806;2023-02-02T10:31:27;94001.56;;;-0.66;100.00
16738;BME280;17906;47.684;10.806;2023-02-02T10:34:03;94004.88;;;-0.64;100.00
16738;BME280;17906;47.684;10.806;2023-02-02T10:36:41;94007.53;;;-0.72;100.00
16738;BME280;17906;47.684;10.806;2023-02-02T10:39:20;94009.50;;;-0.74;100.00
16738;BME280;17906;47.684;10.806;2023-02-02T10:41:58;93999.19;;;-0.77;100.00
16738;BME280;17906;47.684;10.806;2023-02-02T10:44:33;94008.69;;;-0.74;100.00
16738;BME280;17906;47.684;10.806;2023-02-02T10:47:03;94031.13;;;-0.77;100.00
16738;BME280;17906;47.684;10.806;2023-02-02T10:49:33;94015.47;;;-0.80;100.00
16738;BME280;17906;47.684;10.806;2023-02-02T10:52:06;94019.31;;;-0.74;100.00
16738;BME280;17906;47.684;10.806;2023-02-02T10:54:49;94018.66;;;-0.68;100.00
16738;BME280;17906;47.684;10.806;2023-02-02T10:57:21;94019.16;;;-0.73;100.00
16738;BME280;17906;47.684;10.806;2023-02-02T10:59:57;94033.13;;;-0.71;100.00
16738;BME280;17906;47.684;10.806;2023-02-02T11:02:25;94030.16;;;-0.68;100.00
16738;BME280;17906;47.684;10.806;2023-02-02T11:04:52;94023.31;;;-0.70;100.00
16738;BME280;17906;47.684;10.806;2023-02-02T11:07:36;94016.84;;;-0.68;100.00
16738;BME280;17906;47.684;10.806;2023-02-02T11:10:05;94015.22;;;-0.61;100.00
16738;BME280;17906;47.684;10.806;2023-02-02T11:12:33;94004.72;;;-0.62;100.00
16738;BME280;17906;47.684;10.806;2023-02-02T11:15:02;93999.22;;;-0.61;100.00
16738;BME280;17906;47.684;10.806;2023-02-02T11:17:30;93970.44;;;-0.57;100.00
16738;BME280;17906;47.684;10.806;2023-02-02T11:19:58;93993.56;;;-0.58;100.00
16738;BME280;17906;47.684;10.806;2023-02-02T11:22:28;93987.25;;;-0.57;99.06
16738;BME280;17906;47.684;10.806;2023-02-02T11:24:59;93998.91;;;-0.58;99.64
16738;BME280;17906;47.684;10.806;2023-02-02T11:27:30;94003.06;;;-0.63;100.00
16738;BME280;17906;47.684;10.806;2023-02-02T11:30:00;93973.09;;;-0.57;99.17
16738;BME280;17906;47.684;10.806;2023-02-02T11:32:35;93985.38;;;-0.72;100.00
16738;BME280;17906;47.684;10.806;2023-02-02T11:35:17;93977.56;;;-0.74;100.00
16738;BME280;17906;47.684;10.806;2023-02-02T11:37:53;93987.88;;;-0.71;100.00
16738;BME280;17906;47.684;10.806;2023-02-02T11:40:27;93978.94;;;-0.62;100.00
16738;BME280;17906;47.684;10.806;2023-02-02T11:42:56;93974.94;;;-0.58;100.00
16738;BME280;17906;47.684;10.806;2023-02-02T11:45:29;93987.59;;;-0.60;100.00
16738;BME280;17906;47.684;10.806;2023-02-02T11:48:04;93979.44;;;-0.58;100.00
16738;BME280;17906;47.684;10.806;2023-02-02T11:50:32;93983.75;;;-0.57;100.00
16738;BME280;17906;47.684;10.806;2023-02-02T11:52:59;93987.63;;;-0.51;100.00
16738;BME280;17906;47.684;10.806;2023-02-02T11:55:28;93985.75;;;-0.59;100.00
16738;BME280;17906;47.684;10.806;2023-02-02T11:58:19;93969.63;;;-0.66;100.00
16738;BME280;17906;47.684;10.806;2023-02-02T12:00:50;93968.25;;;-0.70;100.00
16738;BME280;17906;47.684;10.806;2023-02-02T12:03:23;93971.25;;;-0.73;100.00
16738;BME280;17906;47.684;10.806;2023-02-02T12:05:50;93982.22;;;-0.76;100.00
16738;BME280;17906;47.684;10.806;2023-02-02T12:08:17;93984.22;;;-0.78;100.00
16738;BME280;17906;47.684;10.806;2023-02-02T12:10:49;93988.19;;;-0.82;100.00
16738;BME280;17906;47.684;10.806;2023-02-02T12:13:36;93968.56;;;-0.81;100.00
16738;BME280;17906;47.684;10.806;2023-02-02T12:16:13;93969.22;;;-0.79;100.00
16738;BME280;17906;47.684;10.806;2023-02-02T12:18:58;93975.06;;;-0.75;100.00
16738;BME280;17906;47.684;10.806;2023-02-02T12:21:35;93970.91;;;-0.70;100.00
16738;BME280;17906;47.684;10.806;2023-02-02T12:24:16;93963.25;;;-0.73;100.00
16738;BME280;17906;47.684;10.806;2023-02-02T12:26:52;93968.75;;;-0.74;100.00
16738;BME280;17906;47.684;10.806;2023-02-02T12:29:36;93964.44;;;-0.75;100.00
16738;BME280;17906;47.684;10.806;2023-02-02T12:32:17;93970.75;;;-0.68;100.00
16738;BME280;17906;47.684;10.806;2023-02-02T12:34:56;93972.25;;;-0.74;100.00
16738;BME280;17906;47.684;10.806;2023-02-02T12:37:36;93974.25;;;-0.76;100.00
16738;BME280;17906;47.684;10.806;2023-02-02T12:40:21;93966.72;;;-0.80;100.00
16738;BME280;17906;47.684;10.806;2023-02-02T12:43:01;93971.22;;;-0.81;100.00
16738;BME280;17906;47.684;10.806;2023-02-02T12:45:41;93960.09;;;-0.76;100.00
16738;BME280;17906;47.684;10.806;2023-02-02T12:48:21;93976.56;;;-0.73;100.00
16738;BME280;17906;47.684;10.806;2023-02-02T12:51:00;93973.06;;;-0.73;100.00
16738;BME280;17906;47.684;10.806;2023-02-02T12:53:38;93984.56;;;-0.73;100.00
16738;BME280;17906;47.684;10.806;2023-02-02T12:56:17;93981.72;;;-0.71;100.00
16738;BME280;17906;47.684;10.806;2023-02-02T12:58:53;93981.56;;;-0.78;100.00
16738;BME280;17906;47.684;10.806;2023-02-02T13:01:32;93995.84;;;-0.79;100.00
16738;BME280;17906;47.684;10.806;2023-02-02T13:04:13;93975.19;;;-0.85;100.00